Humidity-temperature Sensor

Selected Measurement Type: Air Temperature

 
Air Temperature [°C]     6 entries per hour
Showing data from 6/24/2014 (00:00:00 Z) to 6/17/2014 (22:00:00 Z)
Previous Next [ Day | 3-Days | 7-Days ]
First Last
Prev [ Day | 3-Days | 7-Days ] Next
First Last

Start Time:     :
End Time:     :     
Time (in GMT) :00 :50 :40 :30 :20 :10
Previous Next [ Day | 3-Days | 7-Days ]
First Last
Prev [ Day | 3-Days | 7-Days ] Next
First Last


123 => good data
MM => data is determined as missing
-- => data not received/configured
Back to Top Back to Top
6/24/2014 00:00 to 23:10 25.09 25.05 25.12 25.09 25.11 25.11
6/23/2014 23:00 to 22:10 25.14 25.13 25.17 25.21 25.18 25.25
6/23/2014 22:00 to 21:10 25.29 25.35 25.40 25.29 25.35 25.33
6/23/2014 21:00 to 20:10 25.38 25.34 25.27 25.27 25.21 25.17
6/23/2014 20:00 to 19:10 25.23 25.25 25.23 25.25 25.29 25.29
6/23/2014 19:00 to 18:10 25.27 25.34 25.31 25.27 25.27 25.28
6/23/2014 18:00 to 17:10 25.25 25.19 25.14 25.24 25.18 25.20
6/23/2014 17:00 to 16:10 25.14 25.20 25.10 25.22 25.14 25.22
6/23/2014 16:00 to 15:10 25.22 25.20 25.29 25.11 25.22 25.26
6/23/2014 15:00 to 14:10 25.38 25.41 25.15 25.32 25.32 25.29
6/23/2014 14:00 to 13:10 25.43 25.44 25.44 25.30 25.31 24.90
6/23/2014 13:00 to 12:10 24.97 24.92 24.95 24.99 24.93 24.96
6/23/2014 12:00 to 11:10 24.96 24.97 24.95 24.93 24.96 24.94
6/23/2014 11:00 to 10:10 24.92 24.91 24.90 24.86 24.87 24.92
6/23/2014 10:00 to 9:10 24.87 24.87 24.92 24.91 24.91 24.92
6/23/2014 09:00 to 8:10 24.91 24.92 24.96 24.96 25.00 25.01
6/23/2014 08:00 to 7:10 25.01 25.03 25.05 25.09 25.16 25.06
6/23/2014 07:00 to 6:10 25.12 25.11 25.10 25.11 25.10 25.23
6/23/2014 06:00 to 5:10 25.16 25.19 25.10 25.15 25.18 25.10
6/23/2014 05:00 to 4:10 25.22 25.19 25.17 25.18 25.20 25.14
6/23/2014 04:00 to 3:10 25.15 25.18 25.24 25.13 25.16 25.14
6/23/2014 03:00 to 2:10 25.15 25.10 25.20 25.13 25.08 25.03
6/23/2014 02:00 to 1:10 25.05 25.05 25.04 25.07 25.04 25.05
6/23/2014 01:00 to 0:10 25.02 24.98 24.95 25.00 25.02 24.94
6/23/2014 00:00 to 23:10 24.92 24.99 25.06 25.06 24.98 25.14
6/22/2014 23:00 to 22:10 25.13 25.21 25.17 25.26 25.33 25.14
6/22/2014 22:00 to 21:10 25.14 25.19 25.21 25.15 25.13 25.25
6/22/2014 21:00 to 20:10 25.03 25.09 25.08 25.06 25.00 25.07
6/22/2014 20:00 to 19:10 25.07 25.05 24.99 25.07 25.05 24.98
6/22/2014 19:00 to 18:10 25.04 25.02 25.02 25.04 25.04 25.03
6/22/2014 18:00 to 17:10 25.12 25.06 24.99 25.09 25.04 25.09
6/22/2014 17:00 to 16:10 25.04 25.22 25.16 25.16 25.29 25.24
6/22/2014 16:00 to 15:10 25.15 25.18 25.17 25.08 25.26 25.22
6/22/2014 15:00 to 14:10 25.37 25.35 25.04 24.95 24.80 24.80
6/22/2014 14:00 to 13:10 24.74 24.83 24.77 24.78 24.77 24.71
6/22/2014 13:00 to 12:10 24.71 24.76 24.66 24.63 24.73 24.66
6/22/2014 12:00 to 11:10 24.68 24.59 24.57 24.65 24.60 24.64
6/22/2014 11:00 to 10:10 24.59 24.61 24.66 24.67 24.61 24.61
6/22/2014 10:00 to 9:10 24.60 24.63 24.64 24.59 24.63 24.63
6/22/2014 09:00 to 8:10 24.68 24.63 24.62 24.60 24.73 24.73
6/22/2014 08:00 to 7:10 24.68 24.72 24.75 24.72 24.83 24.81
6/22/2014 07:00 to 6:10 24.84 24.79 24.79 24.81 24.82 24.90
6/22/2014 06:00 to 5:10 24.84 24.88 24.86 24.87 24.85 24.93
6/22/2014 05:00 to 4:10 24.89 24.81 24.89 24.94 24.92 24.93
6/22/2014 04:00 to 3:10 24.90 24.91 24.95 24.96 24.98 24.89
6/22/2014 03:00 to 2:10 24.97 24.95 24.96 24.99 25.02 25.00
6/22/2014 02:00 to 1:10 24.96 24.93 24.92 24.93 24.94 24.93
6/22/2014 01:00 to 0:10 24.85 24.86 24.93 24.90 24.97 25.00
6/22/2014 00:00 to 23:10 25.16 25.25 25.27 25.25 25.30 25.41
6/21/2014 23:00 to 22:10 25.34 25.33 25.39 25.31 25.34 25.30
6/21/2014 22:00 to 21:10 25.18 25.16 25.25 25.18 25.16 25.08
6/21/2014 21:00 to 20:10 25.05 25.09 25.24 25.04 25.11 25.08
6/21/2014 20:00 to 19:10 25.07 25.03 25.04 25.06 25.00 25.08
6/21/2014 19:00 to 18:10 25.17 25.12 25.09 25.06 25.01 25.03
6/21/2014 18:00 to 17:10 25.06 25.04 25.00 25.09 25.01 25.18
6/21/2014 17:00 to 16:10 25.07 25.11 25.04 25.13 24.95 25.01
6/21/2014 16:00 to 15:10 25.12 25.10 25.09 25.09 25.04 25.00
6/21/2014 15:00 to 14:10 25.02 25.05 25.11 25.11 25.20 25.10
6/21/2014 14:00 to 13:10 25.12 25.25 24.95 24.91 24.71 24.62
6/21/2014 13:00 to 12:10 24.58 24.86 24.84 24.64 24.52 24.46
6/21/2014 12:00 to 11:10 24.42 24.46 24.86 24.83 24.84 24.89
6/21/2014 11:00 to 10:10 24.90 24.96 24.94 24.87 24.70 24.85
6/21/2014 10:00 to 9:10 24.79 24.78 24.55 24.43 24.34 24.43
6/21/2014 09:00 to 8:10 24.38 24.52 24.50 24.53 24.65 24.68
6/21/2014 08:00 to 7:10 24.79 24.65 24.54 24.58 24.67 24.63
6/21/2014 07:00 to 6:10 25.00 24.97 24.82 24.60 24.59 24.79
6/21/2014 06:00 to 5:10 24.52 24.35 24.50 24.82 25.07 24.99
6/21/2014 05:00 to 4:10 25.03 25.02 25.13 25.01 25.09 25.09
6/21/2014 04:00 to 3:10 25.12 25.10 25.13 25.15 25.15 25.16
6/21/2014 03:00 to 2:10 25.21 25.18 25.21 25.22 25.22 25.17
6/21/2014 02:00 to 1:10 25.13 25.21 25.12 25.18 25.13 25.08
6/21/2014 01:00 to 0:10 25.15 25.10 25.19 25.08 25.12 25.19
6/21/2014 00:00 to 23:10 25.14 25.14 25.17 25.16 25.15 25.19
6/20/2014 23:00 to 22:10 25.17 25.23 25.22 25.16 25.20 25.19
6/20/2014 22:00 to 21:10 25.16 25.18 25.27 25.28 25.34 25.31
6/20/2014 21:00 to 20:10 25.48 25.45 25.43 25.32 25.33 25.28
6/20/2014 20:00 to 19:10 25.21 25.27 25.27 25.36 25.25 25.22
6/20/2014 19:00 to 18:10 25.22 25.16 25.16 25.21 25.23 25.18
6/20/2014 18:00 to 17:10 25.17 25.14 25.15 25.11 25.17 25.27
6/20/2014 17:00 to 16:10 25.19 25.32 25.32 25.31 25.31 25.31
6/20/2014 16:00 to 15:10 25.32 25.33 25.34 25.25 25.33 25.32
6/20/2014 15:00 to 14:10 25.35 25.34 25.32 25.31 25.35 25.37
6/20/2014 14:00 to 13:10 25.49 25.35 25.42 25.37 25.28 25.10
6/20/2014 13:00 to 12:10 25.17 25.05 25.00 24.83 24.76 24.74
6/20/2014 12:00 to 11:10 24.78 24.74 24.83 24.81 24.81 24.86
6/20/2014 11:00 to 10:10 24.85 24.75 24.71 24.80 24.84 24.80
6/20/2014 10:00 to 9:10 24.90 24.77 24.82 24.78 24.79 24.78
6/20/2014 09:00 to 8:10 24.81 24.80 24.85 24.87 24.79 24.82
6/20/2014 08:00 to 7:10 24.80 24.79 24.80 24.84 24.82 24.84
6/20/2014 07:00 to 6:10 24.82 24.91 24.93 24.87 24.87 24.90
6/20/2014 06:00 to 5:10 24.87 24.90 24.83 24.93 24.86 24.93
6/20/2014 05:00 to 4:10 24.87 24.85 24.92 24.99 24.93 24.95
6/20/2014 04:00 to 3:10 24.94 24.98 24.96 24.94 24.97 24.98
6/20/2014 03:00 to 2:10 25.03 24.99 25.01 25.01 24.99 25.00
6/20/2014 02:00 to 1:10 25.00 25.00 24.99 25.01 24.95 25.00
6/20/2014 01:00 to 0:10 24.88 24.90 24.97 24.93 24.97 25.05
6/20/2014 00:00 to 23:10 25.18 25.22 25.30 25.37 25.36 25.26
6/19/2014 23:00 to 22:10 25.45 25.42 25.32 25.23 25.20 25.17
6/19/2014 22:00 to 21:10 25.23 25.14 25.10 25.22 25.20 25.11
6/19/2014 21:00 to 20:10 25.05 25.08 25.09 25.12 25.20 25.17
6/19/2014 20:00 to 19:10 25.16 25.14 25.12 25.11 25.07 25.09
6/19/2014 19:00 to 18:10 25.23 25.15 25.08 25.08 25.25 25.20
6/19/2014 18:00 to 17:10 25.14 25.09 25.13 25.17 25.08 25.08
6/19/2014 17:00 to 16:10 25.12 24.98 25.01 25.06 24.98 24.98
6/19/2014 16:00 to 15:10 25.03 25.03 25.03 25.13 25.17 25.06
6/19/2014 15:00 to 14:10 25.13 25.12 25.09 25.11 25.09 25.21
6/19/2014 14:00 to 13:10 25.10 25.08 25.16 25.17 24.99 24.87
6/19/2014 13:00 to 12:10 24.85 24.86 24.82 24.75 24.74 24.74
6/19/2014 12:00 to 11:10 24.73 24.75 24.77 24.79 24.79 24.73
6/19/2014 11:00 to 10:10 24.81 24.72 24.79 24.73 24.76 24.76
6/19/2014 10:00 to 9:10 24.81 24.85 24.78 24.80 24.80 24.78
6/19/2014 09:00 to 8:10 24.78 24.81 24.82 24.83 24.84 24.85
6/19/2014 08:00 to 7:10 24.87 24.87 24.92 24.93 24.90 24.97
6/19/2014 07:00 to 6:10 24.94 24.99 24.99 24.99 24.97 24.96
6/19/2014 06:00 to 5:10 25.00 25.02 25.06 25.02 25.03 25.04
6/19/2014 05:00 to 4:10 25.01 25.04 25.06 25.06 25.05 25.09
6/19/2014 04:00 to 3:10 25.13 25.11 25.11 25.15 25.06 25.16
6/19/2014 03:00 to 2:10 25.16 25.13 25.25 25.19 25.17 25.17
6/19/2014 02:00 to 1:10 25.21 25.15 25.18 25.22 25.14 25.23
6/19/2014 01:00 to 0:10 25.22 25.20 25.20 25.23 25.21 25.23
6/19/2014 00:00 to 23:10 25.26 25.49 25.48 25.66 25.78 25.63
6/18/2014 23:00 to 22:10 25.59 25.61 25.56 25.54 25.56 25.52
6/18/2014 22:00 to 21:10 25.52 25.45 25.45 25.44 25.33 25.35
6/18/2014 21:00 to 20:10 25.34 25.28 25.26 25.29 25.26 25.26
6/18/2014 20:00 to 19:10 25.23 25.26 25.22 25.14 25.24 25.19
6/18/2014 19:00 to 18:10 25.22 25.27 25.20 25.22 25.26 25.32
6/18/2014 18:00 to 17:10 25.31 25.37 25.38 25.33 25.29 25.20
6/18/2014 17:00 to 16:10 25.19 25.13 25.15 25.21 25.25 25.26
6/18/2014 16:00 to 15:10 25.28 25.33 25.31 25.41 25.36 25.45
6/18/2014 15:00 to 14:10 25.37 25.41 25.36 25.33 25.54 25.37
6/18/2014 14:00 to 13:10 25.48 25.33 25.32 25.42 25.29 25.19
6/18/2014 13:00 to 12:10 25.18 25.13 25.08 25.00 24.94 24.96
6/18/2014 12:00 to 11:10 24.86 24.87 24.84 24.84 24.82 24.78
6/18/2014 11:00 to 10:10 24.78 24.78 24.76 24.76 24.75 24.75
6/18/2014 10:00 to 9:10 24.81 24.78 24.73 24.81 24.76 24.76
6/18/2014 09:00 to 8:10 24.75 24.80 24.83 24.77 24.79 24.85
6/18/2014 08:00 to 7:10 24.80 24.76 24.83 24.84 24.84 24.78
6/18/2014 07:00 to 6:10 24.85 24.85 24.87 24.86 24.91 24.88
6/18/2014 06:00 to 5:10 24.90 24.93 24.92 24.91 24.93 24.92
6/18/2014 05:00 to 4:10 24.88 24.86 24.88 24.89 24.86 24.89
6/18/2014 04:00 to 3:10 24.89 24.89 24.93 24.91 24.94 24.90
6/18/2014 03:00 to 2:10 24.98 24.90 24.92 24.95 24.90 24.97
6/18/2014 02:00 to 1:10 24.95 24.90 24.96 24.93 24.97 24.95
6/18/2014 01:00 to 0:10 -- -- -- -- -- --
6/18/2014 00:00 to 23:10 25.11 25.12 25.11 25.12 25.27 25.24
6/17/2014 23:00 to 22:10 25.17 25.10 25.21 25.17 25.18 25.16